Hauptseite
METAR-TAF:

METAR-TAF

Flughäfen :

Bauerfield Airport

Port Vila, Efate, Vanuatu

Breite: 17-42S, Länge: 168-18E, Höhe: 20 m

Beobachtung

Neuester Wetterbericht von vor 25 Minuten, um 22:00 UTC
Wind 16 kt aus Ost/Südost
Temperatur 27°C
Luftfeuchtigkeit 84%
Luftdruck 1015 hPa
Sichtweite 10 km oder mehr
Durchbrochene Bewölkung in der Höhe von 2000 ft
Geschlossene Wolkendecke in der Höhe von 4000 ft

METAR: NVVV 152200Z 12016KT 9999 BKN020 OVC040 27/24 Q1015

Zeit: 09:25 (22:25 UTC)

Prognose

Neuester Wetterbericht von vor 5 Stunden und 25 Minuten, um 17:00 UTC
Gültige Prognose vom 15 um 18 UTC bis 16 um 18 UTC
Wind 10 kt aus Ost/Südost
Sichtweite: 9000 m
Durchbrochene Bewölkung in der Höhe von 2000 ft
Aufgelockert bewölkt in der Höhe von 1800 ft
Durchbrochene Bewölkung in der Höhe von 3800 ft
Regenschauer,

TAF: NVVV 151700Z 1518/1618 11010KT 9999 BKN020 INTER 1518/1524 9000 SHRA SCT018 BKN038

Wetterbeobachtungen und Prognosen von mehr als 4000 Flughäfen (METAR und TAF Bericht).

Die verfügbaren Stationen werden durch gelbe und rote Markierungen auf der Karte dargestellt.

Führen Sie die Maus auf sie, um den Namen der Station zu sehen.

Darauf klicken, um die Beobachtung von Wetterbeobachtungen und Prognosen zu sehen.

Um die Karte zu ändern : klicken Sie auf den grünen Tasten mit einem schwarzen Kreuz Zum Vergrößern, auf den grünen Button mit einem Gedankenstrich zu verkleinern, oder auf die grünen Pfeile für benachbarte Karten.


METAR-TAF: